Welcome to our new website - Welkom op onze vernieuwde website - Bienvenue sur notre nouveau site web - Willkommen auf unserer neuen Website
Check our progress frequently. Prüfen Sie unsere Fortschritte regelmäßig. Consultez notre progression fréquemment. Komt u straks nog eens terug


Bezoek onze andere website:

Template documentation
and downloads

And another site



METAR rapporten vliegvelden

   
EBBR - Brussels International Airport, Belgium
Afstand tot: W 14 km
Gewijzigd: Oct 20 2018 2:20 am
Helder  
Helder  
   Wind: NNW 2 km/h
Wind: NNW 2 km/h
Temperatuur: 7°C
Dauwpunt: 6°C
Vochtigheid: 93%
Barometer: 1028 hPa
Zicht: meer dan 10 km
Bewolking: Helder
EBBR 200020Z 34001KT CAVOK 07/06 Q1028 NOSIG
EBBE - Beauvechain (Bevekom), Belgium
Afstand tot: ZZO 17 km
Gewijzigd: Oct 20 2018 1:55 am
Helder  
Helder  
   Wind: varieert 2 km/h
Wind: varieert 2 km/h
Temperatuur: 8°C
Dauwpunt: 7°C
Vochtigheid: 93%
Barometer: 1027 hPa
Bewolking: Helder
Zicht: 7 km
Bewolking: Helder
EBBE 192355Z AUTO VRB01KT 7000 NCD 08/07 Q1027 WHT
EBDT - Schaffen, Belgium
Afstand tot: ONO 29 km
Gewijzigd: Oct 20 2018 2:19 am
Helder  
Helder  
   Wind: NNW 7 km/h
Wind: NNW 7 km/h
Temperatuur: 7°C
Voelt als: 6°C
Dauwpunt: 6°C
Vochtigheid: 93%
Barometer: 1028 hPa
Bewolking: Helder
Zicht: 5 km
Bewolking: Helder
EBDT 200019Z AUTO 33004KT 4700 NCD 07/06 Q1028 GRN
EBAW - Antwerp/Deurne, Belgium
Afstand tot: NNW 38 km
Gewijzigd: Oct 20 2018 1:50 am
Helder  
Helder  
   Wind: NNW 6 km/h
Wind: NNW 6 km/h
Temperatuur: 8°C
Voelt als: 7°C
Dauwpunt: 7°C
Vochtigheid: 93%
Barometer: 1028 hPa
Zicht: meer dan 10 km
Bewolking: Helder
EBAW 192350Z AUTO 33003KT CAVOK 08/07 Q1028
EBCI - Charleroi/Gosselies, Belgium
Afstand tot: ZZW 51 km
Gewijzigd: Oct 20 2018 2:20 am
Gedeeltelijk bewolkt  
Gedeeltelijk bewolkt  
   Wind: Noorden 7 km/h
Wind: Noorden 7 km/h
Temperatuur: 8°C
Voelt als: 7°C
Dauwpunt: 7°C
Vochtigheid: 93%
Barometer: 1028 hPa
Bewolking: Gedeeltelijk bewolkt
Zicht: 6 km
Bewolking: Gedeeltelijk bewolkt
EBCI 200020Z 36004KT 6000 NSC 08/07 Q1028 NOSIG
EBLG - Bierset/Liege, Belgium
Afstand tot: OZO 60 km
Gewijzigd: Oct 20 2018 1:50 am
Gedeeltelijk bewolkt  
Gedeeltelijk bewolkt  
   Wind: ONO 7 km/h
Wind: ONO 7 km/h
Temperatuur: 9°C
Voelt als: 8°C
Dauwpunt: 7°C
Vochtigheid: 87%
Barometer: 1027 hPa
Bewolking: Gedeeltelijk bewolkt
Zicht: meer dan 10 km
Bewolking: Gedeeltelijk bewolkt 1066.8 m
EBLG 192350Z 06004KT 040V100 9999 SCT035 09/07 Q1027 NOSIG

Script ontwikkeld door  Saratoga-weather.org Aangepast voor de template door  Weerstation Leuven

U vindt ons ook hier:

Het Weer Aktueel

UK Metoffice

European Weather Network

WeatherCloud

Weather Underground

AWEKAS

Apparatuur in gebruik:

Weerstation
Davis VP2

Weerprogramma
Meteobridge

Weercomputer
Tl-mr3020

Webleverancier
VIP Internet

Davis VP2

Meteobridge

Tl-mr3020

VIP Internet